sensor_id;sensor_type;location;lat;lon;timestamp;temperature;humidity
42683;DHT22;28293;50.930;3.464;2023-03-11T00:01:41;1.70;87.80
42683;DHT22;28293;50.930;3.464;2023-03-11T00:04:07;1.70;87.40
42683;DHT22;28293;50.930;3.464;2023-03-11T00:06:36;1.70;87.40
42683;DHT22;28293;50.930;3.464;2023-03-11T00:09:02;1.80;87.50
42683;DHT22;28293;50.930;3.464;2023-03-11T00:11:29;1.80;87.80
42683;DHT22;28293;50.930;3.464;2023-03-11T00:13:55;1.90;88.00
42683;DHT22;28293;50.930;3.464;2023-03-11T00:16:20;1.90;88.20
42683;DHT22;28293;50.930;3.464;2023-03-11T00:18:49;2.00;88.30
42683;DHT22;28293;50.930;3.464;2023-03-11T00:21:16;2.00;88.30
42683;DHT22;28293;50.930;3.464;2023-03-11T00:23:43;2.10;88.40
42683;DHT22;28293;50.930;3.464;2023-03-11T00:26:09;2.10;88.50
42683;DHT22;28293;50.930;3.464;2023-03-11T00:28:34;2.10;88.60
42683;DHT22;28293;50.930;3.464;2023-03-11T00:31:01;2.10;88.70
42683;DHT22;28293;50.930;3.464;2023-03-11T00:33:26;2.10;88.80
42683;DHT22;28293;50.930;3.464;2023-03-11T00:35:52;2.10;88.90
42683;DHT22;28293;50.930;3.464;2023-03-11T00:38:18;2.20;88.90
42683;DHT22;28293;50.930;3.464;2023-03-11T00:40:46;2.20;89.00
42683;DHT22;28293;50.930;3.464;2023-03-11T00:43:12;2.10;89.10
42683;DHT22;28293;50.930;3.464;2023-03-11T00:45:38;2.10;89.20
42683;DHT22;28293;50.930;3.464;2023-03-11T00:48:04;2.10;89.10
42683;DHT22;28293;50.930;3.464;2023-03-11T00:50:32;2.10;89.30
42683;DHT22;28293;50.930;3.464;2023-03-11T00:52:58;2.10;89.30
42683;DHT22;28293;50.930;3.464;2023-03-11T00:55:27;2.10;89.40
42683;DHT22;28293;50.930;3.464;2023-03-11T00:57:54;2.10;89.40
42683;DHT22;28293;50.930;3.464;2023-03-11T01:00:22;2.00;89.50
42683;DHT22;28293;50.930;3.464;2023-03-11T01:02:49;2.00;89.70
42683;DHT22;28293;50.930;3.464;2023-03-11T01:05:18;1.90;89.70
42683;DHT22;28293;50.930;3.464;2023-03-11T01:07:44;1.90;89.70
42683;DHT22;28293;50.930;3.464;2023-03-11T01:10:10;1.80;89.60
42683;DHT22;28293;50.930;3.464;2023-03-11T01:12:36;1.70;89.70
42683;DHT22;28293;50.930;3.464;2023-03-11T01:15:02;1.70;89.70
42683;DHT22;28293;50.930;3.464;2023-03-11T01:17:28;1.60;89.70
42683;DHT22;28293;50.930;3.464;2023-03-11T01:19:54;1.60;89.80
42683;DHT22;28293;50.930;3.464;2023-03-11T01:22:19;1.60;89.90
42683;DHT22;28293;50.930;3.464;2023-03-11T01:24:45;1.60;90.00
42683;DHT22;28293;50.930;3.464;2023-03-11T01:27:10;1.50;90.10
42683;DHT22;28293;50.930;3.464;2023-03-11T01:29:36;1.50;90.20
42683;DHT22;28293;50.930;3.464;2023-03-11T01:32:02;1.50;90.20
42683;DHT22;28293;50.930;3.464;2023-03-11T01:34:27;1.40;90.20
42683;DHT22;28293;50.930;3.464;2023-03-11T01:36:53;1.40;90.10
42683;DHT22;28293;50.930;3.464;2023-03-11T01:39:19;1.40;90.10
42683;DHT22;28293;50.930;3.464;2023-03-11T01:41:44;1.40;90.10
42683;DHT22;28293;50.930;3.464;2023-03-11T01:44:11;1.40;90.10
42683;DHT22;28293;50.930;3.464;2023-03-11T01:49:19;1.40;90.00
42683;DHT22;28293;50.930;3.464;2023-03-11T01:51:48;1.30;90.00
42683;DHT22;28293;50.930;3.464;2023-03-11T01:54:32;1.40;90.00
42683;DHT22;28293;50.930;3.464;2023-03-11T01:56:58;1.30;90.10
42683;DHT22;28293;50.930;3.464;2023-03-11T01:59:31;1.30;90.10
42683;DHT22;28293;50.930;3.464;2023-03-11T02:02:49;1.30;90.10
42683;DHT22;28293;50.930;3.464;2023-03-11T02:04:50;1.30;90.10
42683;DHT22;28293;50.930;3.464;2023-03-11T02:07:16;1.30;90.10
42683;DHT22;28293;50.930;3.464;2023-03-11T02:09:42;1.30;90.20
42683;DHT22;28293;50.930;3.464;2023-03-11T02:12:10;1.30;90.10
42683;DHT22;28293;50.930;3.464;2023-03-11T02:14:41;1.30;90.20
42683;DHT22;28293;50.930;3.464;2023-03-11T02:17:08;1.30;90.20
42683;DHT22;28293;50.930;3.464;2023-03-11T02:22:06;1.40;90.10
42683;DHT22;28293;50.930;3.464;2023-03-11T02:24:44;1.30;90.00
42683;DHT22;28293;50.930;3.464;2023-03-11T02:27:13;1.30;90.00
42683;DHT22;28293;50.930;3.464;2023-03-11T02:29:41;1.30;90.00
42683;DHT22;28293;50.930;3.464;2023-03-11T02:32:09;1.20;89.90
42683;DHT22;28293;50.930;3.464;2023-03-11T02:34:36;1.30;89.90
42683;DHT22;28293;50.930;3.464;2023-03-11T02:37:08;1.20;89.90
42683;DHT22;28293;50.930;3.464;2023-03-11T02:39:39;1.20;89.90
42683;DHT22;28293;50.930;3.464;2023-03-11T02:42:18;1.10;89.90
42683;DHT22;28293;50.930;3.464;2023-03-11T02:45:04;1.10;90.10
42683;DHT22;28293;50.930;3.464;2023-03-11T02:47:32;1.10;90.10
42683;DHT22;28293;50.930;3.464;2023-03-11T02:49:59;1.10;90.20
42683;DHT22;28293;50.930;3.464;2023-03-11T02:52:27;1.10;90.20
42683;DHT22;28293;50.930;3.464;2023-03-11T02:54:53;1.10;90.20
42683;DHT22;28293;50.930;3.464;2023-03-11T02:57:19;1.20;90.20
42683;DHT22;28293;50.930;3.464;2023-03-11T02:59:44;1.20;90.20
42683;DHT22;28293;50.930;3.464;2023-03-11T03:02:10;1.20;90.10
42683;DHT22;28293;50.930;3.464;2023-03-11T03:04:36;1.20;90.10
42683;DHT22;28293;50.930;3.464;2023-03-11T03:07:01;1.20;90.00
42683;DHT22;28293;50.930;3.464;2023-03-11T03:09:27;1.20;89.80
42683;DHT22;28293;50.930;3.464;2023-03-11T03:11:53;1.20;89.80
42683;DHT22;28293;50.930;3.464;2023-03-11T03:14:18;1.20;89.70
42683;DHT22;28293;50.930;3.464;2023-03-11T03:16:44;1.20;89.70
42683;DHT22;28293;50.930;3.464;2023-03-11T03:19:10;1.20;89.70
42683;DHT22;28293;50.930;3.464;2023-03-11T03:21:35;1.20;89.70
42683;DHT22;28293;50.930;3.464;2023-03-11T03:24:01;1.10;89.60
42683;DHT22;28293;50.930;3.464;2023-03-11T03:26:27;1.10;89.70
42683;DHT22;28293;50.930;3.464;2023-03-11T03:28:53;1.10;89.70
42683;DHT22;28293;50.930;3.464;2023-03-11T03:31:18;1.10;89.70
42683;DHT22;28293;50.930;3.464;2023-03-11T03:33:44;1.10;89.80
42683;DHT22;28293;50.930;3.464;2023-03-11T03:36:12;1.10;89.70
42683;DHT22;28293;50.930;3.464;2023-03-11T03:38:38;1.00;89.70
42683;DHT22;28293;50.930;3.464;2023-03-11T03:41:04;1.00;89.60
42683;DHT22;28293;50.930;3.464;2023-03-11T03:43:30;0.90;89.50
42683;DHT22;28293;50.930;3.464;2023-03-11T03:46:01;0.90;89.50
42683;DHT22;28293;50.930;3.464;2023-03-11T03:48:27;0.90;89.60
42683;DHT22;28293;50.930;3.464;2023-03-11T03:50:53;0.90;89.60
42683;DHT22;28293;50.930;3.464;2023-03-11T03:53:20;0.80;89.70
42683;DHT22;28293;50.930;3.464;2023-03-11T03:55:45;0.80;89.70
42683;DHT22;28293;50.930;3.464;2023-03-11T03:58:11;0.70;89.70
42683;DHT22;28293;50.930;3.464;2023-03-11T04:00:37;0.60;89.70
42683;DHT22;28293;50.930;3.464;2023-03-11T04:03:04;0.60;89.80
42683;DHT22;28293;50.930;3.464;2023-03-11T04:05:30;0.50;89.70
42683;DHT22;28293;50.930;3.464;2023-03-11T04:07:56;0.50;89.80
42683;DHT22;28293;50.930;3.464;2023-03-11T04:10:22;0.50;89.90
42683;DHT22;28293;50.930;3.464;2023-03-11T04:12:47;0.40;89.90
42683;DHT22;28293;50.930;3.464;2023-03-11T04:15:13;0.40;90.00
42683;DHT22;28293;50.930;3.464;2023-03-11T04:17:39;0.40;90.10
42683;DHT22;28293;50.930;3.464;2023-03-11T04:20:05;0.40;90.00
42683;DHT22;28293;50.930;3.464;2023-03-11T04:22:37;0.30;90.10
42683;DHT22;28293;50.930;3.464;2023-03-11T04:25:03;0.30;90.10
42683;DHT22;28293;50.930;3.464;2023-03-11T04:27:29;0.20;90.20
42683;DHT22;28293;50.930;3.464;2023-03-11T04:29:54;0.20;90.20
42683;DHT22;28293;50.930;3.464;2023-03-11T04:32:20;0.20;90.30
42683;DHT22;28293;50.930;3.464;2023-03-11T04:34:47;0.20;90.30
42683;DHT22;28293;50.930;3.464;2023-03-11T04:37:13;0.20;90.30
42683;DHT22;28293;50.930;3.464;2023-03-11T04:39:38;0.20;90.30
42683;DHT22;28293;50.930;3.464;2023-03-11T04:42:04;0.10;90.40
42683;DHT22;28293;50.930;3.464;2023-03-11T04:44:30;0.20;90.40
42683;DHT22;28293;50.930;3.464;2023-03-11T04:46:56;0.20;90.50
42683;DHT22;28293;50.930;3.464;2023-03-11T04:49:21;0.10;90.50
42683;DHT22;28293;50.930;3.464;2023-03-11T04:51:47;0.10;90.50
42683;DHT22;28293;50.930;3.464;2023-03-11T04:54:13;0.10;90.60
42683;DHT22;28293;50.930;3.464;2023-03-11T04:56:38;0.20;90.60
42683;DHT22;28293;50.930;3.464;2023-03-11T04:59:04;0.10;90.60
42683;DHT22;28293;50.930;3.464;2023-03-11T05:01:30;0.10;90.50
42683;DHT22;28293;50.930;3.464;2023-03-11T05:03:56;0.10;90.60
42683;DHT22;28293;50.930;3.464;2023-03-11T05:06:21;0.10;90.60
42683;DHT22;28293;50.930;3.464;2023-03-11T05:08:47;0.10;90.60
42683;DHT22;28293;50.930;3.464;2023-03-11T05:11:13;0.10;90.60
42683;DHT22;28293;50.930;3.464;2023-03-11T05:13:38;0.10;90.70
42683;DHT22;28293;50.930;3.464;2023-03-11T05:16:04;0.10;90.60
42683;DHT22;28293;50.930;3.464;2023-03-11T05:18:30;0.10;90.60
42683;DHT22;28293;50.930;3.464;2023-03-11T05:20:57;0.10;90.60
42683;DHT22;28293;50.930;3.464;2023-03-11T05:23:22;0.10;90.60
42683;DHT22;28293;50.930;3.464;2023-03-11T05:25:48;0.10;90.60
42683;DHT22;28293;50.930;3.464;2023-03-11T05:28:14;0.10;90.70
42683;DHT22;28293;50.930;3.464;2023-03-11T05:30:40;0.10;90.60
42683;DHT22;28293;50.930;3.464;2023-03-11T05:33:05;0.00;90.60
42683;DHT22;28293;50.930;3.464;2023-03-11T05:35:31;0.00;90.60
42683;DHT22;28293;50.930;3.464;2023-03-11T05:37:57;0.00;90.60
42683;DHT22;28293;50.930;3.464;2023-03-11T05:40:22;0.00;90.70
42683;DHT22;28293;50.930;3.464;2023-03-11T05:42:48;0.00;90.70
42683;DHT22;28293;50.930;3.464;2023-03-11T05:45:14;0.00;90.70
42683;DHT22;28293;50.930;3.464;2023-03-11T05:47:39;0.00;90.70
42683;DHT22;28293;50.930;3.464;2023-03-11T05:50:07;-3276.70;90.70
42683;DHT22;28293;50.930;3.464;2023-03-11T05:52:33;-3276.70;90.70
42683;DHT22;28293;50.930;3.464;2023-03-11T05:54:59;-3276.70;90.70
42683;DHT22;28293;50.930;3.464;2023-03-11T05:57:25;-3276.70;90.70
42683;DHT22;28293;50.930;3.464;2023-03-11T05:59:50;-3276.60;90.70
42683;DHT22;28293;50.930;3.464;2023-03-11T06:02:16;-3276.70;90.80
42683;DHT22;28293;50.930;3.464;2023-03-11T06:04:42;-3276.70;90.80
42683;DHT22;28293;50.930;3.464;2023-03-11T06:07:07;-3276.70;90.80
42683;DHT22;28293;50.930;3.464;2023-03-11T06:09:34;-3276.60;90.80
42683;DHT22;28293;50.930;3.464;2023-03-11T06:12:03;-3276.60;90.90
42683;DHT22;28293;50.930;3.464;2023-03-11T06:14:29;-3276.70;90.80
42683;DHT22;28293;50.930;3.464;2023-03-11T06:16:57;-3276.70;90.80
42683;DHT22;28293;50.930;3.464;2023-03-11T06:19:24;-3276.60;90.80
42683;DHT22;28293;50.930;3.464;2023-03-11T06:21:50;-3276.60;90.80
42683;DHT22;28293;50.930;3.464;2023-03-11T06:24:16;-3276.70;90.90
42683;DHT22;28293;50.930;3.464;2023-03-11T06:26:42;-3276.70;90.90
42683;DHT22;28293;50.930;3.464;2023-03-11T06:29:12;-3276.60;90.90
42683;DHT22;28293;50.930;3.464;2023-03-11T06:31:38;-3276.70;90.90
42683;DHT22;28293;50.930;3.464;2023-03-11T06:34:04;-3276.70;90.90
42683;DHT22;28293;50.930;3.464;2023-03-11T06:36:31;0.00;91.00
42683;DHT22;28293;50.930;3.464;2023-03-11T06:38:57;0.00;91.10
42683;DHT22;28293;50.930;3.464;2023-03-11T06:41:23;0.10;91.10
42683;DHT22;28293;50.930;3.464;2023-03-11T06:43:49;0.10;91.00
42683;DHT22;28293;50.930;3.464;2023-03-11T06:46:18;0.20;91.10
42683;DHT22;28293;50.930;3.464;2023-03-11T06:48:44;0.30;90.90
42683;DHT22;28293;50.930;3.464;2023-03-11T06:51:11;0.40;90.80
42683;DHT22;28293;50.930;3.464;2023-03-11T06:53:37;0.50;90.70
42683;DHT22;28293;50.930;3.464;2023-03-11T06:56:10;0.60;90.50
42683;DHT22;28293;50.930;3.464;2023-03-11T06:58:37;0.60;90.20
42683;DHT22;28293;50.930;3.464;2023-03-11T07:01:06;0.60;90.00
42683;DHT22;28293;50.930;3.464;2023-03-11T07:03:32;0.60;89.90
42683;DHT22;28293;50.930;3.464;2023-03-11T07:05:58;0.70;89.80
42683;DHT22;28293;50.930;3.464;2023-03-11T07:08:24;0.70;89.60
42683;DHT22;28293;50.930;3.464;2023-03-11T07:11:12;0.70;89.60
42683;DHT22;28293;50.930;3.464;2023-03-11T07:13:38;0.80;89.60
42683;DHT22;28293;50.930;3.464;2023-03-11T07:16:05;0.80;89.50
42683;DHT22;28293;50.930;3.464;2023-03-11T07:18:32;0.80;89.50
42683;DHT22;28293;50.930;3.464;2023-03-11T07:20:58;0.80;89.50
42683;DHT22;28293;50.930;3.464;2023-03-11T07:23:25;0.80;89.50
42683;DHT22;28293;50.930;3.464;2023-03-11T07:25:51;0.80;89.50
42683;DHT22;28293;50.930;3.464;2023-03-11T07:28:17;0.90;89.50
42683;DHT22;28293;50.930;3.464;2023-03-11T07:30:43;0.90;89.50
42683;DHT22;28293;50.930;3.464;2023-03-11T07:33:11;0.90;89.50
42683;DHT22;28293;50.930;3.464;2023-03-11T07:35:37;1.00;89.60
42683;DHT22;28293;50.930;3.464;2023-03-11T07:38:02;1.00;89.60
42683;DHT22;28293;50.930;3.464;2023-03-11T07:40:28;1.10;89.70
42683;DHT22;28293;50.930;3.464;2023-03-11T07:42:54;1.20;89.70
42683;DHT22;28293;50.930;3.464;2023-03-11T07:45:19;1.20;89.50
42683;DHT22;28293;50.930;3.464;2023-03-11T07:47:45;1.40;89.50
42683;DHT22;28293;50.930;3.464;2023-03-11T07:50:11;1.40;89.60
42683;DHT22;28293;50.930;3.464;2023-03-11T07:52:36;1.60;89.60
42683;DHT22;28293;50.930;3.464;2023-03-11T07:55:03;1.70;89.50
42683;DHT22;28293;50.930;3.464;2023-03-11T07:57:29;1.80;89.50
42683;DHT22;28293;50.930;3.464;2023-03-11T07:59:54;1.90;89.40
42683;DHT22;28293;50.930;3.464;2023-03-11T08:02:20;2.10;89.30
42683;DHT22;28293;50.930;3.464;2023-03-11T08:04:46;2.20;89.20
42683;DHT22;28293;50.930;3.464;2023-03-11T08:07:12;2.50;89.30
42683;DHT22;28293;50.930;3.464;2023-03-11T08:09:37;2.70;88.90
42683;DHT22;28293;50.930;3.464;2023-03-11T08:12:03;3.00;88.20
42683;DHT22;28293;50.930;3.464;2023-03-11T08:14:29;3.20;87.70
42683;DHT22;28293;50.930;3.464;2023-03-11T08:16:55;3.70;87.70
42683;DHT22;28293;50.930;3.464;2023-03-11T08:19:20;4.00;86.00
42683;DHT22;28293;50.930;3.464;2023-03-11T08:21:46;4.10;84.80
42683;DHT22;28293;50.930;3.464;2023-03-11T08:24:12;4.20;84.00
42683;DHT22;28293;50.930;3.464;2023-03-11T08:26:39;4.20;82.80
42683;DHT22;28293;50.930;3.464;2023-03-11T08:29:05;4.20;82.50
42683;DHT22;28293;50.930;3.464;2023-03-11T08:31:32;4.40;84.00
42683;DHT22;28293;50.930;3.464;2023-03-11T08:34:00;4.60;82.70
42683;DHT22;28293;50.930;3.464;2023-03-11T08:36:26;4.70;82.40
42683;DHT22;28293;50.930;3.464;2023-03-11T08:38:52;4.90;81.70
42683;DHT22;28293;50.930;3.464;2023-03-11T08:41:18;5.10;80.70
42683;DHT22;28293;50.930;3.464;2023-03-11T08:43:44;5.10;79.90
42683;DHT22;28293;50.930;3.464;2023-03-11T08:46:18;5.10;80.20
42683;DHT22;28293;50.930;3.464;2023-03-11T08:48:45;5.10;79.80
42683;DHT22;28293;50.930;3.464;2023-03-11T08:51:11;5.30;80.10
42683;DHT22;28293;50.930;3.464;2023-03-11T08:53:37;5.60;79.90
42683;DHT22;28293;50.930;3.464;2023-03-11T08:56:04;5.70;79.10
42683;DHT22;28293;50.930;3.464;2023-03-11T08:58:30;6.00;79.20
42683;DHT22;28293;50.930;3.464;2023-03-11T09:00:55;6.20;78.00
42683;DHT22;28293;50.930;3.464;2023-03-11T09:03:22;6.10;76.50
42683;DHT22;28293;50.930;3.464;2023-03-11T09:05:47;6.10;76.60
42683;DHT22;28293;50.930;3.464;2023-03-11T09:08:13;6.20;76.40
42683;DHT22;28293;50.930;3.464;2023-03-11T09:10:39;6.10;76.30
42683;DHT22;28293;50.930;3.464;2023-03-11T09:13:05;6.10;76.10
42683;DHT22;28293;50.930;3.464;2023-03-11T09:15:31;6.00;75.60
42683;DHT22;28293;50.930;3.464;2023-03-11T09:17:56;5.90;75.40
42683;DHT22;28293;50.930;3.464;2023-03-11T09:20:24;6.00;76.10
42683;DHT22;28293;50.930;3.464;2023-03-11T09:22:49;5.90;76.40
42683;DHT22;28293;50.930;3.464;2023-03-11T09:25:15;6.00;76.70
42683;DHT22;28293;50.930;3.464;2023-03-11T09:27:41;6.10;76.90
42683;DHT22;28293;50.930;3.464;2023-03-11T09:30:08;6.30;76.80
42683;DHT22;28293;50.930;3.464;2023-03-11T09:32:34;6.60;76.30
42683;DHT22;28293;50.930;3.464;2023-03-11T09:35:00;6.60;75.80
42683;DHT22;28293;50.930;3.464;2023-03-11T09:37:25;6.90;75.20
42683;DHT22;28293;50.930;3.464;2023-03-11T09:39:54;6.90;74.50
42683;DHT22;28293;50.930;3.464;2023-03-11T09:45:19;6.90;73.00
42683;DHT22;28293;50.930;3.464;2023-03-11T09:48:13;7.00;72.20
42683;DHT22;28293;50.930;3.464;2023-03-11T09:50:50;7.10;70.40
42683;DHT22;28293;50.930;3.464;2023-03-11T09:55:53;7.50;68.50
42683;DHT22;28293;50.930;3.464;2023-03-11T09:58:42;7.40;68.60
42683;DHT22;28293;50.930;3.464;2023-03-11T10:03:46;7.60;67.50
42683;DHT22;28293;50.930;3.464;2023-03-11T10:06:20;7.70;68.30
42683;DHT22;28293;50.930;3.464;2023-03-11T10:08:59;7.70;66.20
42683;DHT22;28293;50.930;3.464;2023-03-11T10:19:55;8.10;66.20
42683;DHT22;28293;50.930;3.464;2023-03-11T10:25:14;8.30;61.60
42683;DHT22;28293;50.930;3.464;2023-03-11T10:27:54;8.10;62.30
42683;DHT22;28293;50.930;3.464;2023-03-11T10:30:43;8.10;63.50
42683;DHT22;28293;50.930;3.464;2023-03-11T10:33:32;8.20;63.80
42683;DHT22;28293;50.930;3.464;2023-03-11T10:36:05;8.10;63.90
42683;DHT22;28293;50.930;3.464;2023-03-11T10:38:34;8.10;63.80
42683;DHT22;28293;50.930;3.464;2023-03-11T10:41:58;8.00;62.40
42683;DHT22;28293;50.930;3.464;2023-03-11T10:44:27;8.00;62.60
42683;DHT22;28293;50.930;3.464;2023-03-11T10:46:50;8.00;61.80
42683;DHT22;28293;50.930;3.464;2023-03-11T10:49:16;8.10;62.80
42683;DHT22;28293;50.930;3.464;2023-03-11T10:51:47;8.20;60.10
42683;DHT22;28293;50.930;3.464;2023-03-11T10:54:30;8.30;59.00
42683;DHT22;28293;50.930;3.464;2023-03-11T10:57:43;8.60;60.40
42683;DHT22;28293;50.930;3.464;2023-03-11T10:59:47;8.60;61.90
42683;DHT22;28293;50.930;3.464;2023-03-11T11:02:37;8.80;60.50
42683;DHT22;28293;50.930;3.464;2023-03-11T11:07:44;8.90;58.90
42683;DHT22;28293;50.930;3.464;2023-03-11T11:10:23;8.60;60.50
42683;DHT22;28293;50.930;3.464;2023-03-11T11:12:54;8.70;61.20
42683;DHT22;28293;50.930;3.464;2023-03-11T11:15:35;8.80;57.30
42683;DHT22;28293;50.930;3.464;2023-03-11T11:18:13;8.70;58.10
42683;DHT22;28293;50.930;3.464;2023-03-11T11:20:56;8.60;56.30
42683;DHT22;28293;50.930;3.464;2023-03-11T11:26:22;8.40;58.10
42683;DHT22;28293;50.930;3.464;2023-03-11T11:31:38;8.70;59.10
42683;DHT22;28293;50.930;3.464;2023-03-11T11:37:00;8.60;59.80
42683;DHT22;28293;50.930;3.464;2023-03-11T11:39:31;8.20;61.00
42683;DHT22;28293;50.930;3.464;2023-03-11T11:41:58;8.30;59.70
42683;DHT22;28293;50.930;3.464;2023-03-11T11:44:31;8.40;59.50
42683;DHT22;28293;50.930;3.464;2023-03-11T11:47:34;8.70;58.30
42683;DHT22;28293;50.930;3.464;2023-03-11T11:50:17;8.80;57.40
42683;DHT22;28293;50.930;3.464;2023-03-11T11:52:50;8.90;56.40
42683;DHT22;28293;50.930;3.464;2023-03-11T11:55:25;9.10;56.40
42683;DHT22;28293;50.930;3.464;2023-03-11T11:57:52;9.10;55.70
42683;DHT22;28293;50.930;3.464;2023-03-11T12:00:20;9.00;57.00
42683;DHT22;28293;50.930;3.464;2023-03-11T12:11:43;8.60;56.40
42683;DHT22;28293;50.930;3.464;2023-03-11T12:14:25;8.80;56.50
42683;DHT22;28293;50.930;3.464;2023-03-11T12:17:00;8.90;56.30
42683;DHT22;28293;50.930;3.464;2023-03-11T12:22:13;9.40;55.60
42683;DHT22;28293;50.930;3.464;2023-03-11T12:30:25;10.10;49.70
42683;DHT22;28293;50.930;3.464;2023-03-11T12:32:59;10.20;51.90
42683;DHT22;28293;50.930;3.464;2023-03-11T12:35:28;10.00;49.50
42683;DHT22;28293;50.930;3.464;2023-03-11T12:38:20;9.80;50.00
42683;DHT22;28293;50.930;3.464;2023-03-11T12:46:10;9.50;53.20
42683;DHT22;28293;50.930;3.464;2023-03-11T12:48:47;9.60;52.70
42683;DHT22;28293;50.930;3.464;2023-03-11T12:53:53;9.90;49.00
42683;DHT22;28293;50.930;3.464;2023-03-11T12:56:36;9.70;51.60
42683;DHT22;28293;50.930;3.464;2023-03-11T13:02:28;9.90;49.50
42683;DHT22;28293;50.930;3.464;2023-03-11T13:05:20;9.90;50.80
42683;DHT22;28293;50.930;3.464;2023-03-11T13:07:54;10.10;50.40
42683;DHT22;28293;50.930;3.464;2023-03-11T13:15:50;9.90;50.90
42683;DHT22;28293;50.930;3.464;2023-03-11T13:18:24;9.70;50.40
42683;DHT22;28293;50.930;3.464;2023-03-11T13:20:54;9.70;50.70
42683;DHT22;28293;50.930;3.464;2023-03-11T13:23:34;9.60;51.30
42683;DHT22;28293;50.930;3.464;2023-03-11T13:26:27;9.50;48.80
42683;DHT22;28293;50.930;3.464;2023-03-11T13:29:14;9.30;49.20
42683;DHT22;28293;50.930;3.464;2023-03-11T13:34:49;9.40;52.20
42683;DHT22;28293;50.930;3.464;2023-03-11T13:42:48;9.50;48.40
42683;DHT22;28293;50.930;3.464;2023-03-11T13:45:29;9.60;50.20
42683;DHT22;28293;50.930;3.464;2023-03-11T13:48:13;9.80;50.40
42683;DHT22;28293;50.930;3.464;2023-03-11T13:51:06;9.90;50.30
42683;DHT22;28293;50.930;3.464;2023-03-11T13:53:41;10.10;51.30
42683;DHT22;28293;50.930;3.464;2023-03-11T13:56:28;10.10;50.40
42683;DHT22;28293;50.930;3.464;2023-03-11T13:59:25;10.10;50.20
42683;DHT22;28293;50.930;3.464;2023-03-11T14:02:14;10.10;50.40
42683;DHT22;28293;50.930;3.464;2023-03-11T14:04:50;10.00;51.30
42683;DHT22;28293;50.930;3.464;2023-03-11T14:07:30;9.90;51.60
42683;DHT22;28293;50.930;3.464;2023-03-11T14:12:43;9.70;50.70
42683;DHT22;28293;50.930;3.464;2023-03-11T14:15:23;9.80;51.40
42683;DHT22;28293;50.930;3.464;2023-03-11T14:17:52;9.60;51.40
42683;DHT22;28293;50.930;3.464;2023-03-11T14:20:20;9.50;51.30
42683;DHT22;28293;50.930;3.464;2023-03-11T14:22:51;9.40;52.40
42683;DHT22;28293;50.930;3.464;2023-03-11T14:25:21;9.10;53.80
42683;DHT22;28293;50.930;3.464;2023-03-11T14:27:54;9.10;53.20
42683;DHT22;28293;50.930;3.464;2023-03-11T14:30:24;9.30;52.00
42683;DHT22;28293;50.930;3.464;2023-03-11T14:33:19;9.50;51.00
42683;DHT22;28293;50.930;3.464;2023-03-11T14:35:53;9.80;52.00
42683;DHT22;28293;50.930;3.464;2023-03-11T14:38:22;9.60;50.20
42683;DHT22;28293;50.930;3.464;2023-03-11T14:40:56;9.40;50.40
42683;DHT22;28293;50.930;3.464;2023-03-11T14:43:22;9.50;51.30
42683;DHT22;28293;50.930;3.464;2023-03-11T14:45:50;9.50;51.20
42683;DHT22;28293;50.930;3.464;2023-03-11T14:48:30;9.60;52.30
42683;DHT22;28293;50.930;3.464;2023-03-11T14:50:59;9.50;52.70
42683;DHT22;28293;50.930;3.464;2023-03-11T14:53:38;9.30;51.30
42683;DHT22;28293;50.930;3.464;2023-03-11T14:56:14;9.30;51.20
42683;DHT22;28293;50.930;3.464;2023-03-11T15:01:34;9.50;50.10
42683;DHT22;28293;50.930;3.464;2023-03-11T15:04:09;9.50;48.30
42683;DHT22;28293;50.930;3.464;2023-03-11T15:06:38;9.60;48.70
42683;DHT22;28293;50.930;3.464;2023-03-11T15:09:14;9.60;47.70
42683;DHT22;28293;50.930;3.464;2023-03-11T15:14:34;9.60;49.20
42683;DHT22;28293;50.930;3.464;2023-03-11T15:17:22;9.60;50.40
42683;DHT22;28293;50.930;3.464;2023-03-11T15:19:53;9.80;47.60
42683;DHT22;28293;50.930;3.464;2023-03-11T15:22:38;9.90;47.80
42683;DHT22;28293;50.930;3.464;2023-03-11T15:25:18;10.10;48.50
42683;DHT22;28293;50.930;3.464;2023-03-11T15:27:44;10.10;46.70
42683;DHT22;28293;50.930;3.464;2023-03-11T15:30:22;10.00;47.80
42683;DHT22;28293;50.930;3.464;2023-03-11T15:32:48;10.00;49.10
42683;DHT22;28293;50.930;3.464;2023-03-11T15:35:18;10.00;49.60
42683;DHT22;28293;50.930;3.464;2023-03-11T15:37:45;9.90;48.60
42683;DHT22;28293;50.930;3.464;2023-03-11T15:42:47;9.80;46.60
42683;DHT22;28293;50.930;3.464;2023-03-11T15:45:17;9.80;46.40
42683;DHT22;28293;50.930;3.464;2023-03-11T15:47:46;9.80;46.70
42683;DHT22;28293;50.930;3.464;2023-03-11T15:50:33;9.70;44.80
42683;DHT22;28293;50.930;3.464;2023-03-11T15:52:58;9.70;45.50
42683;DHT22;28293;50.930;3.464;2023-03-11T15:55:25;9.60;48.20
42683;DHT22;28293;50.930;3.464;2023-03-11T15:58:04;9.60;46.40
42683;DHT22;28293;50.930;3.464;2023-03-11T16:00:31;9.40;46.20
42683;DHT22;28293;50.930;3.464;2023-03-11T16:02:57;9.40;46.90
42683;DHT22;28293;50.930;3.464;2023-03-11T16:05:24;9.50;47.30
42683;DHT22;28293;50.930;3.464;2023-03-11T16:07:50;9.40;46.10
42683;DHT22;28293;50.930;3.464;2023-03-11T16:10:18;9.40;50.10
42683;DHT22;28293;50.930;3.464;2023-03-11T16:12:44;9.30;47.60
42683;DHT22;28293;50.930;3.464;2023-03-11T16:15:24;9.30;48.30
42683;DHT22;28293;50.930;3.464;2023-03-11T16:17:54;9.20;49.00
42683;DHT22;28293;50.930;3.464;2023-03-11T16:20:21;9.00;50.30
42683;DHT22;28293;50.930;3.464;2023-03-11T16:22:49;8.90;50.90
42683;DHT22;28293;50.930;3.464;2023-03-11T16:25:36;8.90;50.60
42683;DHT22;28293;50.930;3.464;2023-03-11T16:28:03;8.80;50.20
42683;DHT22;28293;50.930;3.464;2023-03-11T16:30:31;8.60;50.00
42683;DHT22;28293;50.930;3.464;2023-03-11T16:32:57;8.60;50.80
42683;DHT22;28293;50.930;3.464;2023-03-11T16:35:23;8.60;49.70
42683;DHT22;28293;50.930;3.464;2023-03-11T16:37:49;8.60;51.20
42683;DHT22;28293;50.930;3.464;2023-03-11T16:40:20;8.60;53.80
42683;DHT22;28293;50.930;3.464;2023-03-11T16:42:46;8.60;53.30
42683;DHT22;28293;50.930;3.464;2023-03-11T16:45:13;8.50;53.20
42683;DHT22;28293;50.930;3.464;2023-03-11T16:47:40;8.50;52.90
42683;DHT22;28293;50.930;3.464;2023-03-11T16:50:06;8.50;53.40
42683;DHT22;28293;50.930;3.464;2023-03-11T16:52:32;8.50;53.10
42683;DHT22;28293;50.930;3.464;2023-03-11T16:54:57;8.40;53.10
42683;DHT22;28293;50.930;3.464;2023-03-11T16:57:23;8.40;54.50
42683;DHT22;28293;50.930;3.464;2023-03-11T16:59:49;8.30;53.90
42683;DHT22;28293;50.930;3.464;2023-03-11T17:02:14;8.20;54.00
42683;DHT22;28293;50.930;3.464;2023-03-11T17:04:40;8.10;55.10
42683;DHT22;28293;50.930;3.464;2023-03-11T17:07:07;8.10;55.40
42683;DHT22;28293;50.930;3.464;2023-03-11T17:09:34;8.00;55.70
42683;DHT22;28293;50.930;3.464;2023-03-11T17:12:00;7.90;55.80
42683;DHT22;28293;50.930;3.464;2023-03-11T17:14:26;7.80;56.40
42683;DHT22;28293;50.930;3.464;2023-03-11T17:16:53;7.80;56.50
42683;DHT22;28293;50.930;3.464;2023-03-11T17:19:18;7.70;57.00
42683;DHT22;28293;50.930;3.464;2023-03-11T17:21:44;7.60;56.90
42683;DHT22;28293;50.930;3.464;2023-03-11T17:24:10;7.60;57.90
42683;DHT22;28293;50.930;3.464;2023-03-11T17:26:36;7.60;58.30